sensor_id;sensor_type;location;lat;lon;timestamp;P1;durP1;ratioP1;P2;durP2;ratioP2
4325;SDS011;58429;49.826;10.880;2023-02-15T00:00:06;32.7;;;15;;
4325;SDS011;58429;49.826;10.880;2023-02-15T00:01:06;32.7;;;15;;
4325;SDS011;58429;49.826;10.880;2023-02-15T00:02:06;34.6;;;17.3;;
4325;SDS011;58429;49.826;10.880;2023-02-15T00:03:06;34.6;;;17.3;;
4325;SDS011;58429;49.826;10.880;2023-02-15T00:04:06;34.6;;;17.3;;
4325;SDS011;58429;49.826;10.880;2023-02-15T00:05:06;32.5;;;16;;
4325;SDS011;58429;49.826;10.880;2023-02-15T00:06:06;32.5;;;16;;
4325;SDS011;58429;49.826;10.880;2023-02-15T00:07:06;32.5;;;16;;
4325;SDS011;58429;49.826;10.880;2023-02-15T00:08:06;35.2;;;16.4;;
4325;SDS011;58429;49.826;10.880;2023-02-15T00:09:06;35.2;;;16.4;;
4325;SDS011;58429;49.826;10.880;2023-02-15T00:10:06;35.2;;;16.4;;
4325;SDS011;58429;49.826;10.880;2023-02-15T00:11:06;28.2;;;15.4;;
4325;SDS011;58429;49.826;10.880;2023-02-15T00:12:06;28.2;;;15.4;;
4325;SDS011;58429;49.826;10.880;2023-02-15T00:13:06;28.2;;;15.4;;
4325;SDS011;58429;49.826;10.880;2023-02-15T00:14:06;29.3;;;15.3;;
4325;SDS011;58429;49.826;10.880;2023-02-15T00:15:06;29.3;;;15.3;;
4325;SDS011;58429;49.826;10.880;2023-02-15T00:16:07;29.3;;;15.3;;
4325;SDS011;58429;49.826;10.880;2023-02-15T00:17:06;26;;;14;;
4325;SDS011;58429;49.826;10.880;2023-02-15T00:18:06;26;;;14;;
4325;SDS011;58429;49.826;10.880;2023-02-15T00:19:06;26;;;14;;
4325;SDS011;58429;49.826;10.880;2023-02-15T00:20:06;30.5;;;15.4;;
4325;SDS011;58429;49.826;10.880;2023-02-15T00:21:07;30.5;;;15.4;;
4325;SDS011;58429;49.826;10.880;2023-02-15T00:22:06;30.5;;;15.4;;
4325;SDS011;58429;49.826;10.880;2023-02-15T00:23:06;30.5;;;15.4;;
4325;SDS011;58429;49.826;10.880;2023-02-15T00:24:06;26.7;;;14.6;;
4325;SDS011;58429;49.826;10.880;2023-02-15T00:25:06;26.7;;;14.6;;
4325;SDS011;58429;49.826;10.880;2023-02-15T00:26:06;26.7;;;14.6;;
4325;SDS011;58429;49.826;10.880;2023-02-15T00:27:06;24.3;;;14.9;;
4325;SDS011;58429;49.826;10.880;2023-02-15T00:28:06;24.3;;;14.9;;
4325;SDS011;58429;49.826;10.880;2023-02-15T00:29:06;24.3;;;14.9;;
4325;SDS011;58429;49.826;10.880;2023-02-15T00:30:06;31;;;14.6;;
4325;SDS011;58429;49.826;10.880;2023-02-15T00:31:06;31;;;14.6;;
4325;SDS011;58429;49.826;10.880;2023-02-15T00:32:06;31;;;14.6;;
4325;SDS011;58429;49.826;10.880;2023-02-15T00:33:06;27.1;;;14.4;;
4325;SDS011;58429;49.826;10.880;2023-02-15T00:34:06;27.1;;;14.4;;
4325;SDS011;58429;49.826;10.880;2023-02-15T00:35:06;27.1;;;14.4;;
4325;SDS011;58429;49.826;10.880;2023-02-15T00:36:07;28.7;;;14.8;;
4325;SDS011;58429;49.826;10.880;2023-02-15T00:37:06;28.7;;;14.8;;
4325;SDS011;58429;49.826;10.880;2023-02-15T00:38:06;28.7;;;14.8;;
4325;SDS011;58429;49.826;10.880;2023-02-15T00:39:06;25.5;;;14.2;;
4325;SDS011;58429;49.826;10.880;2023-02-15T00:40:06;25.5;;;14.2;;
4325;SDS011;58429;49.826;10.880;2023-02-15T00:41:06;25.5;;;14.2;;
4325;SDS011;58429;49.826;10.880;2023-02-15T00:42:06;27.8;;;15.5;;
4325;SDS011;58429;49.826;10.880;2023-02-15T00:43:06;27.8;;;15.5;;
4325;SDS011;58429;49.826;10.880;2023-02-15T00:44:06;27.8;;;15.5;;
4325;SDS011;58429;49.826;10.880;2023-02-15T00:45:06;26;;;14.8;;
4325;SDS011;58429;49.826;10.880;2023-02-15T00:46:06;26;;;14.8;;
4325;SDS011;58429;49.826;10.880;2023-02-15T00:47:06;26;;;14.8;;
4325;SDS011;58429;49.826;10.880;2023-02-15T00:48:06;28.7;;;15.5;;
4325;SDS011;58429;49.826;10.880;2023-02-15T00:49:06;28.7;;;15.5;;
4325;SDS011;58429;49.826;10.880;2023-02-15T00:50:06;28.7;;;15.5;;
4325;SDS011;58429;49.826;10.880;2023-02-15T00:51:06;25.6;;;14.5;;
4325;SDS011;58429;49.826;10.880;2023-02-15T00:52:06;25.6;;;14.5;;
4325;SDS011;58429;49.826;10.880;2023-02-15T00:53:06;25.6;;;14.5;;
4325;SDS011;58429;49.826;10.880;2023-02-15T00:54:06;26.1;;;13.8;;
4325;SDS011;58429;49.826;10.880;2023-02-15T00:55:06;26.1;;;13.8;;
4325;SDS011;58429;49.826;10.880;2023-02-15T00:56:06;26.1;;;13.8;;
4325;SDS011;58429;49.826;10.880;2023-02-15T00:57:06;23.2;;;14.3;;
4325;SDS011;58429;49.826;10.880;2023-02-15T00:58:06;23.2;;;14.3;;
4325;SDS011;58429;49.826;10.880;2023-02-15T00:59:07;23.2;;;14.3;;
4325;SDS011;58429;49.826;10.880;2023-02-15T01:00:06;23.5;;;14;;
4325;SDS011;58429;49.826;10.880;2023-02-15T01:01:07;23.5;;;14;;
4325;SDS011;58429;49.826;10.880;2023-02-15T01:02:06;23.5;;;14;;
4325;SDS011;58429;49.826;10.880;2023-02-15T01:03:06;27.1;;;13.9;;
4325;SDS011;58429;49.826;10.880;2023-02-15T01:04:06;27.1;;;13.9;;
4325;SDS011;58429;49.826;10.880;2023-02-15T01:05:06;27.1;;;13.9;;
4325;SDS011;58429;49.826;10.880;2023-02-15T01:06:06;22.6;;;12.3;;
4325;SDS011;58429;49.826;10.880;2023-02-15T01:07:06;22.6;;;12.3;;
4325;SDS011;58429;49.826;10.880;2023-02-15T01:08:06;22.6;;;12.3;;
4325;SDS011;58429;49.826;10.880;2023-02-15T01:09:06;24.4;;;13.3;;
4325;SDS011;58429;49.826;10.880;2023-02-15T01:10:06;24.4;;;13.3;;
4325;SDS011;58429;49.826;10.880;2023-02-15T01:11:07;24.4;;;13.3;;
4325;SDS011;58429;49.826;10.880;2023-02-15T01:12:06;21.6;;;13;;
4325;SDS011;58429;49.826;10.880;2023-02-15T01:13:06;21.6;;;13;;
4325;SDS011;58429;49.826;10.880;2023-02-15T01:14:06;21.6;;;13;;
4325;SDS011;58429;49.826;10.880;2023-02-15T01:15:06;22.6;;;11.9;;
4325;SDS011;58429;49.826;10.880;2023-02-15T01:16:06;22.6;;;11.9;;
4325;SDS011;58429;49.826;10.880;2023-02-15T01:17:06;22.6;;;11.9;;
4325;SDS011;58429;49.826;10.880;2023-02-15T01:18:06;20.4;;;10.7;;
4325;SDS011;58429;49.826;10.880;2023-02-15T01:19:06;20.4;;;10.7;;
4325;SDS011;58429;49.826;10.880;2023-02-15T01:20:06;20.4;;;10.7;;
4325;SDS011;58429;49.826;10.880;2023-02-15T01:21:10;23.9;;;13.2;;
4325;SDS011;58429;49.826;10.880;2023-02-15T01:22:06;23.9;;;13.2;;
4325;SDS011;58429;49.826;10.880;2023-02-15T01:23:06;23.9;;;13.2;;
4325;SDS011;58429;49.826;10.880;2023-02-15T01:24:10;24.1;;;13.5;;
4325;SDS011;58429;49.826;10.880;2023-02-15T01:25:06;24.1;;;13.5;;
4325;SDS011;58429;49.826;10.880;2023-02-15T01:26:06;24.1;;;13.5;;
4325;SDS011;58429;49.826;10.880;2023-02-15T01:27:06;22.8;;;14.1;;
4325;SDS011;58429;49.826;10.880;2023-02-15T01:28:06;22.8;;;14.1;;
4325;SDS011;58429;49.826;10.880;2023-02-15T01:29:06;22.8;;;14.1;;
4325;SDS011;58429;49.826;10.880;2023-02-15T01:30:06;24.8;;;13.2;;
4325;SDS011;58429;49.826;10.880;2023-02-15T01:31:06;24.8;;;13.2;;
4325;SDS011;58429;49.826;10.880;2023-02-15T01:32:06;24.8;;;13.2;;
4325;SDS011;58429;49.826;10.880;2023-02-15T01:33:06;21.1;;;12.6;;
4325;SDS011;58429;49.826;10.880;2023-02-15T01:34:06;21.1;;;12.6;;
4325;SDS011;58429;49.826;10.880;2023-02-15T01:35:06;21.1;;;12.6;;
4325;SDS011;58429;49.826;10.880;2023-02-15T01:36:06;25.1;;;13.2;;
4325;SDS011;58429;49.826;10.880;2023-02-15T01:37:06;25.1;;;13.2;;
4325;SDS011;58429;49.826;10.880;2023-02-15T01:38:06;25.1;;;13.2;;
4325;SDS011;58429;49.826;10.880;2023-02-15T01:39:06;23.1;;;12.8;;
4325;SDS011;58429;49.826;10.880;2023-02-15T01:40:07;23.1;;;12.8;;
4325;SDS011;58429;49.826;10.880;2023-02-15T01:41:06;23.1;;;12.8;;
4325;SDS011;58429;49.826;10.880;2023-02-15T01:42:07;25.2;;;13.5;;
4325;SDS011;58429;49.826;10.880;2023-02-15T01:43:09;25.2;;;13.5;;
4325;SDS011;58429;49.826;10.880;2023-02-15T01:44:40;25.2;;;13.5;;
4325;SDS011;58429;49.826;10.880;2023-02-15T01:45:10;22.3;;;12.9;;
4325;SDS011;58429;49.826;10.880;2023-02-15T01:46:06;22.3;;;12.9;;
4325;SDS011;58429;49.826;10.880;2023-02-15T01:47:07;22.3;;;12.9;;
4325;SDS011;58429;49.826;10.880;2023-02-15T01:48:17;22.9;;;12.6;;
4325;SDS011;58429;49.826;10.880;2023-02-15T01:49:08;22.9;;;12.6;;
4325;SDS011;58429;49.826;10.880;2023-02-15T01:50:08;22.9;;;12.6;;
4325;SDS011;58429;49.826;10.880;2023-02-15T01:51:06;22.9;;;13.2;;
4325;SDS011;58429;49.826;10.880;2023-02-15T01:52:06;22.9;;;13.2;;
4325;SDS011;58429;49.826;10.880;2023-02-15T01:53:07;22.9;;;13.2;;
4325;SDS011;58429;49.826;10.880;2023-02-15T01:54:07;22.5;;;13.6;;
4325;SDS011;58429;49.826;10.880;2023-02-15T01:55:06;22.5;;;13.6;;
4325;SDS011;58429;49.826;10.880;2023-02-15T01:56:07;22.5;;;13.6;;
4325;SDS011;58429;49.826;10.880;2023-02-15T01:57:07;23;;;13.9;;
4325;SDS011;58429;49.826;10.880;2023-02-15T01:58:06;23;;;13.9;;
4325;SDS011;58429;49.826;10.880;2023-02-15T01:59:07;23;;;13.9;;
4325;SDS011;58429;49.826;10.880;2023-02-15T02:00:06;22.4;;;13.4;;
4325;SDS011;58429;49.826;10.880;2023-02-15T02:01:07;22.4;;;13.4;;
4325;SDS011;58429;49.826;10.880;2023-02-15T02:02:06;22.4;;;13.4;;
4325;SDS011;58429;49.826;10.880;2023-02-15T02:03:06;25;;;14.6;;
4325;SDS011;58429;49.826;10.880;2023-02-15T02:04:08;25;;;14.6;;
4325;SDS011;58429;49.826;10.880;2023-02-15T02:05:06;25;;;14.6;;
4325;SDS011;58429;49.826;10.880;2023-02-15T02:06:06;23.8;;;13.2;;
4325;SDS011;58429;49.826;10.880;2023-02-15T02:07:06;23.8;;;13.2;;
4325;SDS011;58429;49.826;10.880;2023-02-15T02:08:06;23.8;;;13.2;;
4325;SDS011;58429;49.826;10.880;2023-02-15T02:09:06;23.8;;;13.2;;
4325;SDS011;58429;49.826;10.880;2023-02-15T02:10:07;23.8;;;13.4;;
4325;SDS011;58429;49.826;10.880;2023-02-15T02:11:11;23.8;;;13.4;;
4325;SDS011;58429;49.826;10.880;2023-02-15T02:12:06;23.8;;;13.4;;
4325;SDS011;58429;49.826;10.880;2023-02-15T02:13:06;24.9;;;14;;
4325;SDS011;58429;49.826;10.880;2023-02-15T02:14:06;24.9;;;14;;
4325;SDS011;58429;49.826;10.880;2023-02-15T02:15:06;24.9;;;14;;
4325;SDS011;58429;49.826;10.880;2023-02-15T02:16:08;25.5;;;14.4;;
4325;SDS011;58429;49.826;10.880;2023-02-15T02:17:07;25.5;;;14.4;;
4325;SDS011;58429;49.826;10.880;2023-02-15T02:18:09;25.5;;;14.4;;
4325;SDS011;58429;49.826;10.880;2023-02-15T02:19:29;22.9;;;12.4;;
4325;SDS011;58429;49.826;10.880;2023-02-15T02:20:11;22.9;;;12.4;;
4325;SDS011;58429;49.826;10.880;2023-02-15T02:21:11;22.9;;;12.4;;
4325;SDS011;58429;49.826;10.880;2023-02-15T02:22:12;23.9;;;14.4;;
4325;SDS011;58429;49.826;10.880;2023-02-15T02:23:13;23.9;;;14.4;;
4325;SDS011;58429;49.826;10.880;2023-02-15T02:24:18;23.9;;;14.4;;
4325;SDS011;58429;49.826;10.880;2023-02-15T02:25:12;21.1;;;12.7;;
4325;SDS011;58429;49.826;10.880;2023-02-15T02:26:19;21.1;;;12.7;;
4325;SDS011;58429;49.826;10.880;2023-02-15T02:27:12;21.1;;;12.7;;
4325;SDS011;58429;49.826;10.880;2023-02-15T02:28:09;25.6;;;12.9;;
4325;SDS011;58429;49.826;10.880;2023-02-15T02:29:14;25.6;;;12.9;;
4325;SDS011;58429;49.826;10.880;2023-02-15T02:30:10;25.6;;;12.9;;
4325;SDS011;58429;49.826;10.880;2023-02-15T02:31:11;25;;;13;;
4325;SDS011;58429;49.826;10.880;2023-02-15T02:32:12;25;;;13;;
4325;SDS011;58429;49.826;10.880;2023-02-15T02:33:08;25;;;13;;
4325;SDS011;58429;49.826;10.880;2023-02-15T02:34:07;23.8;;;13.8;;
4325;SDS011;58429;49.826;10.880;2023-02-15T02:35:08;23.8;;;13.8;;
4325;SDS011;58429;49.826;10.880;2023-02-15T02:36:08;23.8;;;13.8;;
4325;SDS011;58429;49.826;10.880;2023-02-15T02:37:08;24.3;;;13.4;;
4325;SDS011;58429;49.826;10.880;2023-02-15T02:38:08;24.3;;;13.4;;
4325;SDS011;58429;49.826;10.880;2023-02-15T02:39:09;24.3;;;13.4;;
4325;SDS011;58429;49.826;10.880;2023-02-15T02:40:08;20.7;;;13.3;;
4325;SDS011;58429;49.826;10.880;2023-02-15T02:41:07;20.7;;;13.3;;
4325;SDS011;58429;49.826;10.880;2023-02-15T02:42:12;20.7;;;13.3;;
4325;SDS011;58429;49.826;10.880;2023-02-15T02:43:08;23.4;;;14;;
4325;SDS011;58429;49.826;10.880;2023-02-15T02:44:07;23.4;;;14;;
4325;SDS011;58429;49.826;10.880;2023-02-15T02:45:07;23.4;;;14;;
4325;SDS011;58429;49.826;10.880;2023-02-15T02:46:07;23.3;;;13.9;;
4325;SDS011;58429;49.826;10.880;2023-02-15T02:47:08;23.3;;;13.9;;
4325;SDS011;58429;49.826;10.880;2023-02-15T02:48:08;23.3;;;13.9;;
4325;SDS011;58429;49.826;10.880;2023-02-15T02:49:06;24.6;;;14.3;;
4325;SDS011;58429;49.826;10.880;2023-02-15T02:50:07;24.6;;;14.3;;
4325;SDS011;58429;49.826;10.880;2023-02-15T02:51:06;24.6;;;14.3;;
4325;SDS011;58429;49.826;10.880;2023-02-15T02:52:31;22.9;;;13.3;;
4325;SDS011;58429;49.826;10.880;2023-02-15T02:53:06;22.9;;;13.3;;
4325;SDS011;58429;49.826;10.880;2023-02-15T02:54:06;22.9;;;13.3;;
4325;SDS011;58429;49.826;10.880;2023-02-15T02:55:07;21.6;;;13.7;;
4325;SDS011;58429;49.826;10.880;2023-02-15T02:56:09;21.6;;;13.7;;
4325;SDS011;58429;49.826;10.880;2023-02-15T02:57:06;21.6;;;13.7;;
4325;SDS011;58429;49.826;10.880;2023-02-15T02:58:13;23;;;13.2;;
4325;SDS011;58429;49.826;10.880;2023-02-15T02:59:07;23;;;13.2;;
4325;SDS011;58429;49.826;10.880;2023-02-15T03:00:06;23;;;13.2;;
4325;SDS011;58429;49.826;10.880;2023-02-15T03:01:08;23.1;;;12.9;;
4325;SDS011;58429;49.826;10.880;2023-02-15T03:02:07;23.1;;;12.9;;
4325;SDS011;58429;49.826;10.880;2023-02-15T03:03:08;23.1;;;12.9;;
4325;SDS011;58429;49.826;10.880;2023-02-15T03:04:07;25.1;;;13.8;;
4325;SDS011;58429;49.826;10.880;2023-02-15T03:05:07;25.1;;;13.8;;
4325;SDS011;58429;49.826;10.880;2023-02-15T03:06:07;25.1;;;13.8;;
4325;SDS011;58429;49.826;10.880;2023-02-15T03:07:07;22.3;;;13.5;;
4325;SDS011;58429;49.826;10.880;2023-02-15T03:08:06;22.3;;;13.5;;
4325;SDS011;58429;49.826;10.880;2023-02-15T03:09:08;22.3;;;13.5;;
4325;SDS011;58429;49.826;10.880;2023-02-15T03:10:06;25.3;;;13.5;;
4325;SDS011;58429;49.826;10.880;2023-02-15T03:11:06;25.3;;;13.5;;
4325;SDS011;58429;49.826;10.880;2023-02-15T03:12:06;25.3;;;13.5;;
4325;SDS011;58429;49.826;10.880;2023-02-15T03:13:06;27;;;13.8;;
4325;SDS011;58429;49.826;10.880;2023-02-15T03:14:06;27;;;13.8;;
4325;SDS011;58429;49.826;10.880;2023-02-15T03:15:08;27;;;13.8;;
4325;SDS011;58429;49.826;10.880;2023-02-15T03:16:06;24;;;13.4;;
4325;SDS011;58429;49.826;10.880;2023-02-15T03:17:06;24;;;13.4;;
4325;SDS011;58429;49.826;10.880;2023-02-15T03:18:06;24;;;13.4;;
4325;SDS011;58429;49.826;10.880;2023-02-15T03:19:08;25.5;;;14.5;;
4325;SDS011;58429;49.826;10.880;2023-02-15T03:20:08;25.5;;;14.5;;
4325;SDS011;58429;49.826;10.880;2023-02-15T03:21:07;25.5;;;14.5;;
4325;SDS011;58429;49.826;10.880;2023-02-15T03:22:08;24.1;;;14.1;;
4325;SDS011;58429;49.826;10.880;2023-02-15T03:23:07;24.1;;;14.1;;
4325;SDS011;58429;49.826;10.880;2023-02-15T03:24:07;24.1;;;14.1;;
4325;SDS011;58429;49.826;10.880;2023-02-15T03:25:08;24.3;;;14.4;;
4325;SDS011;58429;49.826;10.880;2023-02-15T03:26:06;24.3;;;14.4;;
4325;SDS011;58429;49.826;10.880;2023-02-15T03:27:13;24.3;;;14.4;;
4325;SDS011;58429;49.826;10.880;2023-02-15T03:28:13;26.8;;;14.3;;
4325;SDS011;58429;49.826;10.880;2023-02-15T03:29:06;26.8;;;14.3;;
4325;SDS011;58429;49.826;10.880;2023-02-15T03:30:07;26.8;;;14.3;;
4325;SDS011;58429;49.826;10.880;2023-02-15T03:31:06;26.5;;;15.1;;
4325;SDS011;58429;49.826;10.880;2023-02-15T03:32:07;26.5;;;15.1;;
4325;SDS011;58429;49.826;10.880;2023-02-15T03:33:06;26.5;;;15.1;;
4325;SDS011;58429;49.826;10.880;2023-02-15T03:34:07;25.7;;;15.7;;
4325;SDS011;58429;49.826;10.880;2023-02-15T03:35:07;25.7;;;15.7;;
4325;SDS011;58429;49.826;10.880;2023-02-15T03:36:08;25.7;;;15.7;;
4325;SDS011;58429;49.826;10.880;2023-02-15T03:37:09;26.3;;;14.7;;
4325;SDS011;58429;49.826;10.880;2023-02-15T03:38:06;26.3;;;14.7;;
4325;SDS011;58429;49.826;10.880;2023-02-15T03:39:09;26.3;;;14.7;;
4325;SDS011;58429;49.826;10.880;2023-02-15T03:40:08;38.4;;;16.8;;
4325;SDS011;58429;49.826;10.880;2023-02-15T03:41:06;38.4;;;16.8;;
4325;SDS011;58429;49.826;10.880;2023-02-15T03:42:08;38.4;;;16.8;;
4325;SDS011;58429;49.826;10.880;2023-02-15T03:43:08;26.1;;;16;;
4325;SDS011;58429;49.826;10.880;2023-02-15T03:44:08;26.1;;;16;;
4325;SDS011;58429;49.826;10.880;2023-02-15T03:45:08;26.1;;;16;;
4325;SDS011;58429;49.826;10.880;2023-02-15T03:46:09;25.8;;;15.5;;
4325;SDS011;58429;49.826;10.880;2023-02-15T03:47:08;25.8;;;15.5;;
4325;SDS011;58429;49.826;10.880;2023-02-15T03:48:06;25.8;;;15.5;;
4325;SDS011;58429;49.826;10.880;2023-02-15T03:49:07;26.1;;;15.3;;
4325;SDS011;58429;49.826;10.880;2023-02-15T03:50:07;26.1;;;15.3;;
4325;SDS011;58429;49.826;10.880;2023-02-15T03:51:07;26.1;;;15.3;;
4325;SDS011;58429;49.826;10.880;2023-02-15T03:52:07;22.5;;;13.6;;
4325;SDS011;58429;49.826;10.880;2023-02-15T03:53:07;22.5;;;13.6;;
4325;SDS011;58429;49.826;10.880;2023-02-15T03:54:07;22.5;;;13.6;;
4325;SDS011;58429;49.826;10.880;2023-02-15T03:55:06;22.5;;;13.6;;
4325;SDS011;58429;49.826;10.880;2023-02-15T03:56:06;22;;;14.6;;
4325;SDS011;58429;49.826;10.880;2023-02-15T03:57:07;22;;;14.6;;
4325;SDS011;58429;49.826;10.880;2023-02-15T03:58:06;22;;;14.6;;
4325;SDS011;58429;49.826;10.880;2023-02-15T03:59:07;24;;;15;;
4325;SDS011;58429;49.826;10.880;2023-02-15T04:00:09;24;;;15;;
4325;SDS011;58429;49.826;10.880;2023-02-15T04:01:10;24;;;15;;
4325;SDS011;58429;49.826;10.880;2023-02-15T04:02:08;24.7;;;14.6;;
4325;SDS011;58429;49.826;10.880;2023-02-15T04:03:09;24.7;;;14.6;;
4325;SDS011;58429;49.826;10.880;2023-02-15T04:04:07;24.7;;;14.6;;
4325;SDS011;58429;49.826;10.880;2023-02-15T04:05:07;24.8;;;14.4;;
4325;SDS011;58429;49.826;10.880;2023-02-15T04:06:07;24.8;;;14.4;;
4325;SDS011;58429;49.826;10.880;2023-02-15T04:07:07;24.8;;;14.4;;
4325;SDS011;58429;49.826;10.880;2023-02-15T04:08:07;31.1;;;15.2;;
4325;SDS011;58429;49.826;10.880;2023-02-15T04:09:06;31.1;;;15.2;;
4325;SDS011;58429;49.826;10.880;2023-02-15T04:10:07;31.1;;;15.2;;
4325;SDS011;58429;49.826;10.880;2023-02-15T04:11:06;25.5;;;15.8;;
4325;SDS011;58429;49.826;10.880;2023-02-15T04:12:07;25.5;;;15.8;;
4325;SDS011;58429;49.826;10.880;2023-02-15T04:13:06;25.5;;;15.8;;
4325;SDS011;58429;49.826;10.880;2023-02-15T04:14:07;27.3;;;15;;
4325;SDS011;58429;49.826;10.880;2023-02-15T04:15:07;27.3;;;15;;
4325;SDS011;58429;49.826;10.880;2023-02-15T04:16:07;27.3;;;15;;
4325;SDS011;58429;49.826;10.880;2023-02-15T04:17:07;32.6;;;16.7;;
4325;SDS011;58429;49.826;10.880;2023-02-15T04:18:06;32.6;;;16.7;;
4325;SDS011;58429;49.826;10.880;2023-02-15T04:19:07;32.6;;;16.7;;
4325;SDS011;58429;49.826;10.880;2023-02-15T04:20:07;29.1;;;16.2;;
4325;SDS011;58429;49.826;10.880;2023-02-15T04:21:07;29.1;;;16.2;;
4325;SDS011;58429;49.826;10.880;2023-02-15T04:22:07;29.1;;;16.2;;
4325;SDS011;58429;49.826;10.880;2023-02-15T04:23:07;35;;;17.1;;
4325;SDS011;58429;49.826;10.880;2023-02-15T04:24:07;35;;;17.1;;
4325;SDS011;58429;49.826;10.880;2023-02-15T04:25:07;35;;;17.1;;
4325;SDS011;58429;49.826;10.880;2023-02-15T04:26:07;28.8;;;15.8;;
4325;SDS011;58429;49.826;10.880;2023-02-15T04:27:07;28.8;;;15.8;;
4325;SDS011;58429;49.826;10.880;2023-02-15T04:28:07;28.8;;;15.8;;
4325;SDS011;58429;49.826;10.880;2023-02-15T04:29:07;25.5;;;15.4;;
4325;SDS011;58429;49.826;10.880;2023-02-15T04:30:07;25.5;;;15.4;;
4325;SDS011;58429;49.826;10.880;2023-02-15T04:31:07;25.5;;;15.4;;
4325;SDS011;58429;49.826;10.880;2023-02-15T04:32:07;27;;;14.6;;
4325;SDS011;58429;49.826;10.880;2023-02-15T04:33:07;27;;;14.6;;
4325;SDS011;58429;49.826;10.880;2023-02-15T04:34:07;27;;;14.6;;
4325;SDS011;58429;49.826;10.880;2023-02-15T04:35:07;26.7;;;14.9;;
4325;SDS011;58429;49.826;10.880;2023-02-15T04:36:07;26.7;;;14.9;;
4325;SDS011;58429;49.826;10.880;2023-02-15T04:37:07;26.7;;;14.9;;
4325;SDS011;58429;49.826;10.880;2023-02-15T04:38:07;25.9;;;15;;
4325;SDS011;58429;49.826;10.880;2023-02-15T04:39:07;25.9;;;15;;
4325;SDS011;58429;49.826;10.880;2023-02-15T04:40:07;25.9;;;15;;
4325;SDS011;58429;49.826;10.880;2023-02-15T04:41:07;23.8;;;15.2;;
4325;SDS011;58429;49.826;10.880;2023-02-15T04:42:07;23.8;;;15.2;;
4325;SDS011;58429;49.826;10.880;2023-02-15T04:43:07;23.8;;;15.2;;
4325;SDS011;58429;49.826;10.880;2023-02-15T04:44:07;21.4;;;13;;
4325;SDS011;58429;49.826;10.880;2023-02-15T04:45:07;21.4;;;13;;
4325;SDS011;58429;49.826;10.880;2023-02-15T04:46:07;21.4;;;13;;
4325;SDS011;58429;49.826;10.880;2023-02-15T04:47:07;24.9;;;14.6;;
4325;SDS011;58429;49.826;10.880;2023-02-15T04:48:07;24.9;;;14.6;;
4325;SDS011;58429;49.826;10.880;2023-02-15T04:49:07;24.9;;;14.6;;
4325;SDS011;58429;49.826;10.880;2023-02-15T04:50:07;48.7;;;24.2;;
4325;SDS011;58429;49.826;10.880;2023-02-15T04:51:07;48.7;;;24.2;;
4325;SDS011;58429;49.826;10.880;2023-02-15T04:52:07;48.7;;;24.2;;
4325;SDS011;58429;49.826;10.880;2023-02-15T04:53:07;29.5;;;16.3;;
4325;SDS011;58429;49.826;10.880;2023-02-15T04:54:07;29.5;;;16.3;;
4325;SDS011;58429;49.826;10.880;2023-02-15T04:55:07;29.5;;;16.3;;
4325;SDS011;58429;49.826;10.880;2023-02-15T04:56:07;33.3;;;17.7;;
4325;SDS011;58429;49.826;10.880;2023-02-15T04:57:07;33.3;;;17.7;;
4325;SDS011;58429;49.826;10.880;2023-02-15T04:58:12;33.3;;;17.7;;
4325;SDS011;58429;49.826;10.880;2023-02-15T04:59:08;26.2;;;15.4;;
4325;SDS011;58429;49.826;10.880;2023-02-15T05:00:07;26.2;;;15.4;;
4325;SDS011;58429;49.826;10.880;2023-02-15T05:01:07;26.2;;;15.4;;
4325;SDS011;58429;49.826;10.880;2023-02-15T05:02:07;27.3;;;16.5;;
4325;SDS011;58429;49.826;10.880;2023-02-15T05:03:07;27.3;;;16.5;;
4325;SDS011;58429;49.826;10.880;2023-02-15T05:04:07;27.3;;;16.5;;
4325;SDS011;58429;49.826;10.880;2023-02-15T05:05:07;24.3;;;13.8;;
4325;SDS011;58429;49.826;10.880;2023-02-15T05:06:07;24.3;;;13.8;;
4325;SDS011;58429;49.826;10.880;2023-02-15T05:07:07;24.3;;;13.8;;
4325;SDS011;58429;49.826;10.880;2023-02-15T05:08:07;25.9;;;15.5;;
4325;SDS011;58429;49.826;10.880;2023-02-15T05:09:07;25.9;;;15.5;;
4325;SDS011;58429;49.826;10.880;2023-02-15T05:10:07;25.9;;;15.5;;
4325;SDS011;58429;49.826;10.880;2023-02-15T05:11:07;24.1;;;13.9;;
4325;SDS011;58429;49.826;10.880;2023-02-15T05:12:07;24.1;;;13.9;;
4325;SDS011;58429;49.826;10.880;2023-02-15T05:13:07;24.1;;;13.9;;
4325;SDS011;58429;49.826;10.880;2023-02-15T05:14:07;29.1;;;15.4;;
4325;SDS011;58429;49.826;10.880;2023-02-15T05:15:07;29.1;;;15.4;;
4325;SDS011;58429;49.826;10.880;2023-02-15T05:16:07;29.1;;;15.4;;
4325;SDS011;58429;49.826;10.880;2023-02-15T05:17:07;27.1;;;15.2;;
4325;SDS011;58429;49.826;10.880;2023-02-15T05:18:07;27.1;;;15.2;;
4325;SDS011;58429;49.826;10.880;2023-02-15T05:19:07;27.1;;;15.2;;
4325;SDS011;58429;49.826;10.880;2023-02-15T05:20:07;27.2;;;15.9;;
4325;SDS011;58429;49.826;10.880;2023-02-15T05:21:07;27.2;;;15.9;;
4325;SDS011;58429;49.826;10.880;2023-02-15T05:22:07;27.2;;;15.9;;
4325;SDS011;58429;49.826;10.880;2023-02-15T05:23:07;30.5;;;15.7;;
4325;SDS011;58429;49.826;10.880;2023-02-15T05:24:07;30.5;;;15.7;;
4325;SDS011;58429;49.826;10.880;2023-02-15T05:25:08;30.5;;;15.7;;
4325;SDS011;58429;49.826;10.880;2023-02-15T05:26:07;29.4;;;16.6;;
4325;SDS011;58429;49.826;10.880;2023-02-15T05:27:07;29.4;;;16.6;;
4325;SDS011;58429;49.826;10.880;2023-02-15T05:28:07;29.4;;;16.6;;
4325;SDS011;58429;49.826;10.880;2023-02-15T05:29:07;34.9;;;16.2;;
4325;SDS011;58429;49.826;10.880;2023-02-15T05:30:07;34.9;;;16.2;;
4325;SDS011;58429;49.826;10.880;2023-02-15T05:31:08;34.9;;;16.2;;
4325;SDS011;58429;49.826;10.880;2023-02-15T05:32:07;33.3;;;15.5;;
4325;SDS011;58429;49.826;10.880;2023-02-15T05:33:07;33.3;;;15.5;;
4325;SDS011;58429;49.826;10.880;2023-02-15T05:34:07;33.3;;;15.5;;
4325;SDS011;58429;49.826;10.880;2023-02-15T05:35:07;30.4;;;16.4;;
4325;SDS011;58429;49.826;10.880;2023-02-15T05:36:07;30.4;;;16.4;;
4325;SDS011;58429;49.826;10.880;2023-02-15T05:37:07;30.4;;;16.4;;
4325;SDS011;58429;49.826;10.880;2023-02-15T05:38:07;28.6;;;15.7;;
4325;SDS011;58429;49.826;10.880;2023-02-15T05:39:07;28.6;;;15.7;;
4325;SDS011;58429;49.826;10.880;2023-02-15T05:40:07;28.6;;;15.7;;
4325;SDS011;58429;49.826;10.880;2023-02-15T05:41:08;28.6;;;15.7;;
4325;SDS011;58429;49.826;10.880;2023-02-15T05:42:07;29.4;;;16;;
4325;SDS011;58429;49.826;10.880;2023-02-15T05:43:07;29.4;;;16;;
4325;SDS011;58429;49.826;10.880;2023-02-15T05:44:07;29.4;;;16;;
4325;SDS011;58429;49.826;10.880;2023-02-15T05:45:07;27.8;;;15.9;;
4325;SDS011;58429;49.826;10.880;2023-02-15T05:46:07;27.8;;;15.9;;
4325;SDS011;58429;49.826;10.880;2023-02-15T05:47:07;27.8;;;15.9;;
4325;SDS011;58429;49.826;10.880;2023-02-15T05:48:07;32.1;;;16.1;;
4325;SDS011;58429;49.826;10.880;2023-02-15T05:49:07;32.1;;;16.1;;
4325;SDS011;58429;49.826;10.880;2023-02-15T05:50:07;32.1;;;16.1;;
4325;SDS011;58429;49.826;10.880;2023-02-15T05:51:08;32.2;;;18.6;;
4325;SDS011;58429;49.826;10.880;2023-02-15T05:52:07;32.2;;;18.6;;
4325;SDS011;58429;49.826;10.880;2023-02-15T05:53:07;32.2;;;18.6;;
4325;SDS011;58429;49.826;10.880;2023-02-15T05:54:07;29;;;16.5;;
4325;SDS011;58429;49.826;10.880;2023-02-15T05:55:07;29;;;16.5;;
4325;SDS011;58429;49.826;10.880;2023-02-15T05:56:08;29;;;16.5;;
4325;SDS011;58429;49.826;10.880;2023-02-15T05:57:07;26.7;;;16;;
4325;SDS011;58429;49.826;10.880;2023-02-15T05:58:07;26.7;;;16;;
4325;SDS011;58429;49.826;10.880;2023-02-15T05:59:07;26.7;;;16;;
4325;SDS011;58429;49.826;10.880;2023-02-15T06:00:07;36.4;;;21;;
4325;SDS011;58429;49.826;10.880;2023-02-15T06:01:07;36.4;;;21;;
4325;SDS011;58429;49.826;10.880;2023-02-15T06:02:07;36.4;;;21;;
4325;SDS011;58429;49.826;10.880;2023-02-15T06:03:07;35;;;22.1;;
4325;SDS011;58429;49.826;10.880;2023-02-15T06:04:07;35;;;22.1;;